ADDS METAR Data INFO
IDs: Format: Raw Decoded Include TAF

Data at: 0425 UTC 24 Apr 2018

KAFO 240415Z AUTO 32003KT 10SM CLR 00/00 A3029 RMK AO2
KAFO 240355Z AUTO 34004KT 10SM SCT049 01/00 A3028 RMK AO2
KAFO 240335Z AUTO 35005KT 10SM BKN047 02/00 A3028 RMK AO2
KAFO 240315Z AUTO 34005KT 10SM OVC045 03/00 A3027 RMK AO2
KAFO 240255Z AUTO 32006KT 10SM BKN043 OVC050 03/01 A3026 RMK AO2
KAFO 240235Z AUTO 34007KT 10SM BKN043 OVC050 03/00 A3026 RMK AO2
KAFO 240215Z AUTO 33007KT 10SM BKN043 BKN050 BKN070 05/00 A3025 RMK AO2
KAFO 240155Z AUTO 33007KT 10SM SCT043 SCT050 BKN070 05/00 A3025 RMK AO2
KAFO 240135Z AUTO 33006KT 10SM SCT043 OVC050 06/00 A3025 RMK AO2
KAFO 240115Z AUTO 32012KT 10SM BKN050 OVC055 06/00 A3025 RMK AO2
KAFO 240055Z AUTO 32010KT 10SM OVC065 06/00 A3025 RMK AO2
KAFO 240035Z AUTO 32009KT 10SM BKN075 OVC110 07/00 A3024 RMK AO2
KAFO 240015Z AUTO 29011G17KT 10SM BKN110 07/M01 A3023 RMK AO2
KAFO 232355Z AUTO 32012KT 10SM SCT060 07/M01 A3022 RMK AO2
KAFO 232335Z AUTO 31013KT 10SM BKN065 BKN075 BKN110 08/M01 A3021 RMK AO2 LTG DSNT E
KAFO 232315Z AUTO 29014KT 10SM SCT065 BKN110 09/M04 A3020 RMK AO2
KAFO 232255Z AUTO 30012G17KT 10SM BKN110 10/M05 A3020 RMK AO2
KAFO 232235Z AUTO 27010G16KT 10SM SCT075 SCT085 SCT110 08/M03 A3019 RMK AO2
KAFO 232215Z AUTO 28009G15KT 10SM SCT065 OVC085 10/M04 A3019 RMK AO2
KAFO 232155Z AUTO 26008KT 10SM SCT065 OVC085 09/M02 A3019 RMK AO2
KAFO 232135Z AUTO 32010KT 10SM SCT065 BKN085 10/M03 A3019 RMK AO2
KAFO 232115Z AUTO 31009KT 10SM BKN065 OVC075 08/M03 A3019 RMK AO2
KAFO 232055Z AUTO 26009G15KT 220V300 10SM SCT065 BKN075 10/M02 A3019 RMK AO2
KAFO 232035Z AUTO 29004KT 10SM SCT065 BKN075 10/M02 A3019 RMK AO2
KAFO 232015Z AUTO 26011G16KT 10SM SCT055 SCT065 BKN075 08/M02 A3019 RMK AO2
KAFO 231955Z AUTO 32009KT 10SM BKN055 BKN075 BKN085 08/M02 A3018 RMK AO2
KAFO 231935Z AUTO 29009KT 10SM SCT050 SCT065 SCT075 08/M03 A3017 RMK AO2
KAFO 231915Z AUTO 28004KT 10SM SCT040 BKN050 BKN060 08/M02 A3017 RMK AO2
KAFO 231855Z AUTO 36005KT 10SM BKN038 BKN047 OVC055 07/00 A3018 RMK AO2
KAFO 231835Z AUTO 04008KT 10SM SCT034 BKN041 OVC060 07/00 A3019 RMK AO2 LTG DSNT NE
KAFO 231815Z AUTO 36009KT 10SM SCT034 BKN046 OVC060 07/00 A3019 RMK AO2
KAFO 231755Z AUTO 36005KT 10SM SCT033 SCT047 BKN060 07/00 A3018 RMK AO2
KAFO 231735Z AUTO 32007KT 10SM BKN033 BKN049 OVC065 06/00 A3018 RMK AO2
KAFO 231715Z AUTO 34005KT 10SM BKN048 OVC060 07/00 A3017 RMK AO2
KAFO 231655Z AUTO 01004KT 10SM BKN045 OVC050 06/02 A3017 RMK AO2
KAFO 231635Z AUTO 34004KT 10SM SCT024 BKN043 OVC050 06/02 A3017 RMK AO2
KAFO 231615Z AUTO 32003KT 10SM SCT038 BKN047 06/03 A3016 RMK AO2
KAFO 231555Z AUTO 00000KT 10SM SCT049 06/02 A3016 RMK AO2
KAFO 231535Z AUTO 00000KT 10SM CLR 05/02 A3016 RMK AO2
KAFO 231515Z AUTO 00000KT 10SM SCT031 SCT037 03/01 A3016 RMK AO2
KAFO 231455Z AUTO 00000KT 10SM BKN032 BKN038 02/01 A3015 RMK AO2
KAFO 231435Z AUTO 00000KT 10SM BKN032 02/01 A3015 RMK AO2
KAFO 231415Z AUTO 36003KT 10SM CLR 01/00 A3014 RMK AO2
KAFO 231355Z AUTO 00000KT 10SM CLR 00/00 A3014 RMK AO2
KAFO 231335Z AUTO 00000KT 10SM SCT035 00/00 A3014 RMK AO2
KAFO 231315Z AUTO 00000KT 10SM SCT006 SCT033 SCT039 00/00 A3013 RMK AO2
KAFO 231255Z AUTO 04005KT 10SM SCT006 BKN032 OVC085 00/00 A3013 RMK AO2
KAFO 231235Z AUTO 26006KT 10SM SCT003 BKN025 OVC085 00/00 A3011 RMK AO2
KAFO 231215Z AUTO 24008KT 5SM -RA BKN019 OVC026 00/00 A3011 RMK AO2
KAFO 231155Z AUTO 09003KT 2 1/2SM -SN OVC015 00/00 A3014 RMK AO2 VIS 1 1/4V4
KAFO 231135Z AUTO 04004KT 2SM -SN OVC013 00/00 A3015 RMK AO2
KAFO 231115Z AUTO 02006KT 3SM RA SCT013 BKN020 OVC027 01/00 A3015 RMK AO2
KAFO 231055Z AUTO 33007KT 7SM RA SCT014 BKN027 OVC033 02/01 A3014 RMK AO2
KAFO 231035Z AUTO 01007KT 7SM -RA BKN014 BKN021 OVC026 02/01 A3010 RMK AO2
KAFO 231015Z AUTO 02010KT 5SM +RA OVC019 03/02 A3012 RMK AO2
KAFO 230955Z AUTO 03009KT 7SM RA SCT016 OVC023 04/02 A3013 RMK AO2
KAFO 230935Z AUTO 36009KT 10SM RA OVC025 05/02 A3013 RMK AO2
KAFO 230915Z AUTO 32016G22KT 10SM BKN027 OVC034 06/01 A3011 RMK AO2
KAFO 230855Z AUTO 36003KT 10SM BKN034 OVC048 05/00 A3009 RMK AO2
KAFO 230835Z AUTO 00000KT 10SM SCT038 BKN046 OVC100 03/00 A3007 RMK AO2
KAFO 230815Z AUTO 18003KT 10SM BKN100 02/00 A3006 RMK AO2
KAFO 230755Z AUTO 00000KT 10SM BKN100 BKN120 02/00 A3005 RMK AO2
KAFO 230735Z AUTO 00000KT 10SM SCT110 03/M01 A3004 RMK AO2
KAFO 230715Z AUTO 04007KT 10SM CLR 03/M01 A3004 RMK AO2
KAFO 230655Z AUTO 29005KT 10SM CLR 02/M01 A3003 RMK AO2
KAFO 230635Z AUTO 22003KT 10SM CLR 03/00 A3003 RMK AO2
KAFO 230615Z AUTO 09003KT 10SM CLR 06/M02 A3002 RMK AO2
KAFO 230555Z AUTO 09004KT 10SM CLR 04/M01 A3002 RMK AO2
KAFO 230535Z AUTO 26005KT 10SM CLR 05/M01 A3003 RMK AO2
KAFO 230515Z AUTO 00000KT 10SM CLR 05/M01 A3002 RMK AO2
KAFO 230455Z AUTO 20006KT 10SM CLR 05/M01 A3001 RMK AO2
KAFO 230435Z AUTO 21006KT 10SM CLR 05/M01 A3002 RMK AO2
KAFO 230415Z AUTO 22005KT 10SM CLR 05/M01 A3002 RMK AO2
KAFO 230355Z AUTO 20003KT 10SM CLR 06/M01 A3003 RMK AO2
KAFO 230335Z AUTO 00000KT 10SM SCT090 07/M01 A3003 RMK AO2
KAFO 230315Z AUTO 00000KT 10SM SCT090 07/M01 A3003 RMK AO2
KAFO 230255Z AUTO 00000KT 10SM CLR 10/M02 A3002 RMK AO2
KAFO 230235Z AUTO 07003KT 10SM CLR 10/M01 A3002 RMK AO2
KAFO 230215Z AUTO 00000KT 10SM CLR 13/M02 A3002 RMK AO2
KAFO 230155Z AUTO 27004KT 10SM CLR 14/M01 A3002 RMK AO2
KAFO 230135Z AUTO 00000KT 10SM SCT095 16/M01 A3002 RMK AO2
KAFO 230115Z AUTO 29005KT 10SM BKN095 17/M02 A3002 RMK AO2
KAFO 230055Z AUTO 28008KT 10SM SCT095 17/M02 A3002 RMK AO2
KAFO 230035Z AUTO 24005KT 10SM BKN095 18/M03 A3002 RMK AO2
KAFO 230015Z AUTO 26005KT 10SM SCT095 18/M03 A3003 RMK AO2
KAFO 222355Z AUTO 21003KT 10SM SCT090 18/M03 A3003 RMK AO2
KAFO 222335Z AUTO 23006KT 10SM BKN090 19/M02 A3004 RMK AO2
KAFO 222315Z AUTO 26005KT 10SM BKN090 18/M02 A3004 RMK AO2
KAFO 222255Z AUTO 19004KT 10SM BKN090 18/M02 A3005 RMK AO2
KAFO 222235Z AUTO 17005KT 10SM BKN090 17/M03 A3005 RMK AO2
KAFO 222215Z AUTO 00000KT 10SM BKN100 17/M03 A3006 RMK AO2
KAFO 222155Z AUTO 27004KT 10SM BKN100 18/M02 A3007 RMK AO2
KAFO 222135Z AUTO 22005KT 10SM BKN090 18/M03 A3007 RMK AO2
KAFO 222115Z AUTO 13004KT 10SM SCT090 17/M03 A3008 RMK AO2
KAFO 222055Z AUTO 23008KT 10SM BKN090 18/M02 A3009 RMK AO2
KAFO 222035Z AUTO 16008KT 10SM SCT080 17/M02 A3010 RMK AO2
KAFO 222015Z AUTO 20006KT 10SM BKN080 17/M02 A3010 RMK AO2
KAFO 221955Z AUTO 18006KT 10SM BKN080 17/M02 A3011 RMK AO2
KAFO 221935Z AUTO 23006KT 10SM SCT080 17/M01 A3011 RMK AO2
KAFO 221915Z AUTO 25004KT 10SM SCT080 16/M01 A3013 RMK AO2
KAFO 221855Z AUTO 23003KT 10SM SCT070 15/M02 A3013 RMK AO2
KAFO 221835Z AUTO 15003KT 10SM BKN070 BKN080 16/M01 A3014 RMK AO2
KAFO 221815Z AUTO 00000KT 10SM BKN070 15/M01 A3015 RMK AO2
KAFO 221755Z AUTO 15003KT 10SM SCT070 16/M01 A3016 RMK AO2
KAFO 221735Z AUTO 07005KT 10SM CLR 15/M01 A3016 RMK AO2
KAFO 221715Z AUTO 00000KT 10SM CLR 14/M01 A3017 RMK AO2
KAFO 221655Z AUTO 02003KT 10SM CLR 12/M01 A3018 RMK AO2
KAFO 221635Z AUTO 00000KT 10SM CLR 11/M01 A3019 RMK AO2